createdAt,value
2023-03-16T00:00:27.847Z,-2.25
2023-03-16T00:03:34.136Z,-2.30
2023-03-16T00:06:40.844Z,-2.37
2023-03-16T00:09:47.196Z,-2.43
2023-03-16T00:12:56.764Z,-2.53
2023-03-16T00:16:07.858Z,-2.58
2023-03-16T00:19:14.656Z,-2.61
2023-03-16T00:22:20.512Z,-2.62
2023-03-16T00:25:27.402Z,-2.69
2023-03-16T00:28:38.297Z,-2.70
2023-03-16T00:31:46.906Z,-2.75
2023-03-16T00:34:52.898Z,-2.76
2023-03-16T00:37:59.604Z,-2.82
2023-03-16T00:41:06.841Z,-2.93
2023-03-16T00:44:16.074Z,-2.97
2023-03-16T00:47:21.962Z,-3.00
2023-03-16T00:50:29.009Z,-3.03
2023-03-16T00:53:36.628Z,-3.06
2023-03-16T00:56:43.420Z,-3.03
2023-03-16T00:59:52.828Z,-3.04
2023-03-16T01:03:00.811Z,-3.00
2023-03-16T01:06:10.424Z,-3.00
2023-03-16T01:09:18.364Z,-3.04
2023-03-16T01:12:24.261Z,-3.02
2023-03-16T01:15:35.019Z,-3.06
2023-03-16T01:18:41.719Z,-3.07
2023-03-16T01:21:48.509Z,-3.05
2023-03-16T01:24:55.232Z,-3.04
2023-03-16T01:28:02.151Z,-3.09
2023-03-16T01:31:15.630Z,-3.12
2023-03-16T01:34:23.104Z,-3.17
2023-03-16T01:37:29.195Z,-3.15
2023-03-16T01:40:39.836Z,-3.22
2023-03-16T01:43:46.630Z,-3.18
2023-03-16T01:46:56.048Z,-3.16
2023-03-16T01:50:02.708Z,-3.19
2023-03-16T01:53:12.886Z,-3.19
2023-03-16T01:56:28.796Z,-3.21
2023-03-16T01:59:43.305Z,-3.21
2023-03-16T02:02:59.490Z,-3.23
2023-03-16T02:06:23.513Z,-3.28
2023-03-16T02:09:38.625Z,-3.36
2023-03-16T02:12:47.455Z,-3.32
2023-03-16T02:15:55.449Z,-3.41
2023-03-16T02:19:05.359Z,-3.37
2023-03-16T02:22:14.242Z,-3.37
2023-03-16T02:25:24.120Z,-3.34
2023-03-16T02:28:42.885Z,-3.33
2023-03-16T02:31:53.048Z,-3.38
2023-03-16T02:34:59.962Z,-3.35
2023-03-16T02:38:06.913Z,-3.37
2023-03-16T02:41:23.484Z,-3.36
2023-03-16T02:44:43.997Z,-3.52
2023-03-16T02:47:58.087Z,-3.51
2023-03-16T02:51:04.970Z,-3.46
2023-03-16T02:54:11.966Z,-3.46
2023-03-16T02:57:19.417Z,-3.48
2023-03-16T03:00:26.455Z,-3.52
2023-03-16T03:03:37.019Z,-3.52
2023-03-16T03:06:44.727Z,-3.51
2023-03-16T03:09:53.808Z,-3.54
2023-03-16T03:13:00.625Z,-3.51
2023-03-16T03:16:09.296Z,-3.59
2023-03-16T03:19:17.924Z,-3.57
2023-03-16T03:22:24.773Z,-3.53
2023-03-16T03:25:30.706Z,-3.57
2023-03-16T03:28:37.415Z,-3.59
2023-03-16T03:31:43.918Z,-3.61
2023-03-16T03:34:53.666Z,-3.64
2023-03-16T03:37:59.705Z,-3.59
2023-03-16T03:41:08.516Z,-3.61
2023-03-16T03:44:17.889Z,-3.58
2023-03-16T03:47:24.974Z,-3.54
2023-03-16T03:50:34.555Z,-3.57
2023-03-16T03:54:13.487Z,-3.71
2023-03-16T03:57:30.154Z,-3.68
2023-03-16T04:00:36.784Z,-3.65
2023-03-16T04:03:45.149Z,-3.67
2023-03-16T04:07:01.338Z,-3.71
2023-03-16T04:10:10.773Z,-3.69
2023-03-16T04:13:20.411Z,-3.66
2023-03-16T04:16:31.723Z,-3.70
2023-03-16T04:19:37.938Z,-3.68
2023-03-16T04:22:58.714Z,-3.71
2023-03-16T04:26:05.811Z,-3.76
2023-03-16T04:29:12.913Z,-3.75
2023-03-16T04:32:19.106Z,-3.77
2023-03-16T04:35:26.096Z,-3.76
2023-03-16T04:38:40.627Z,-3.75
2023-03-16T04:41:48.947Z,-3.75
2023-03-16T04:45:00.218Z,-3.75
2023-03-16T04:48:08.632Z,-3.69
2023-03-16T04:51:15.831Z,-3.65
2023-03-16T04:54:36.463Z,-3.70
2023-03-16T04:57:43.965Z,-3.76
2023-03-16T05:00:50.686Z,-3.71
2023-03-16T05:04:04.162Z,-3.63
2023-03-16T05:07:14.204Z,-3.59
2023-03-16T05:10:36.082Z,-3.54
2023-03-16T05:13:42.941Z,-3.52
2023-03-16T05:16:49.038Z,-3.54
2023-03-16T05:20:00.545Z,-3.50
2023-03-16T05:23:11.989Z,-3.45
2023-03-16T05:26:28.517Z,-3.40
2023-03-16T05:29:35.450Z,-3.43
2023-03-16T05:32:43.228Z,-3.42
2023-03-16T05:35:49.320Z,-3.29
2023-03-16T05:38:56.147Z,-3.21
2023-03-16T05:42:16.270Z,-3.14
2023-03-16T05:45:35.446Z,-3.03
2023-03-16T05:48:50.744Z,-3.02
2023-03-16T05:52:00.031Z,-2.91
2023-03-16T05:55:08.698Z,-2.77
2023-03-16T05:58:18.524Z,-2.62
2023-03-16T06:01:26.173Z,-2.39
2023-03-16T06:04:36.413Z,-1.89
2023-03-16T06:07:42.353Z,-1.33
2023-03-16T06:10:51.436Z,-1.09
2023-03-16T06:14:01.569Z,-0.21
2023-03-16T06:17:11.905Z,0.33
2023-03-16T06:20:20.332Z,1.06
2023-03-16T06:23:27.899Z,1.67
2023-03-16T06:26:35.260Z,2.26
2023-03-16T06:29:47.676Z,2.67
2023-03-16T06:32:54.163Z,2.83
2023-03-16T06:36:01.984Z,3.27
2023-03-16T06:39:15.830Z,3.07
2023-03-16T06:42:26.986Z,3.80
2023-03-16T06:45:35.627Z,3.69
2023-03-16T06:48:43.689Z,3.90
2023-03-16T06:51:49.661Z,2.69
2023-03-16T06:54:58.715Z,2.66
2023-03-16T06:58:05.997Z,2.76
2023-03-16T07:01:15.447Z,3.04
2023-03-16T07:04:21.946Z,2.93
2023-03-16T07:07:29.274Z,2.10
2023-03-16T07:10:35.545Z,1.43
2023-03-16T07:13:42.289Z,1.51
2023-03-16T07:16:53.072Z,1.36
2023-03-16T07:20:05.714Z,1.13
2023-03-16T07:23:16.691Z,1.21
2023-03-16T07:26:24.125Z,0.41
2023-03-16T07:29:34.460Z,0.54
2023-03-16T07:32:46.567Z,0.88
2023-03-16T07:35:53.633Z,0.78
2023-03-16T07:39:01.525Z,1.57
2023-03-16T07:42:11.555Z,1.58
2023-03-16T07:45:29.266Z,1.57
2023-03-16T07:48:38.646Z,2.01
2023-03-16T07:51:45.408Z,2.10
2023-03-16T07:54:51.794Z,2.23
2023-03-16T07:57:58.603Z,2.31
2023-03-16T08:01:12.836Z,2.37
2023-03-16T08:04:26.582Z,2.60
2023-03-16T08:07:32.697Z,3.17
2023-03-16T08:10:44.738Z,3.70
2023-03-16T08:13:56.869Z,4.41
2023-03-16T08:17:12.794Z,5.45
2023-03-16T08:20:21.956Z,5.13
2023-03-16T08:23:29.675Z,4.45
2023-03-16T08:26:37.634Z,3.92
2023-03-16T08:29:49.753Z,4.41
2023-03-16T08:32:57.546Z,3.93
2023-03-16T08:36:10.475Z,3.39
2023-03-16T08:39:22.867Z,3.18
2023-03-16T08:42:35.076Z,3.35
2023-03-16T08:45:42.871Z,4.07
2023-03-16T08:48:49.691Z,3.65
2023-03-16T08:52:00.858Z,4.82
2023-03-16T08:55:17.672Z,5.24
2023-03-16T08:58:23.575Z,6.34
2023-03-16T09:01:30.417Z,7.24
2023-03-16T09:04:36.443Z,6.80
2023-03-16T09:07:49.082Z,7.51
2023-03-16T09:11:10.844Z,7.98
2023-03-16T09:14:23.722Z,8.11
2023-03-16T09:17:29.937Z,7.86
2023-03-16T09:20:37.999Z,6.88
2023-03-16T09:23:49.440Z,7.12
2023-03-16T09:26:56.282Z,8.52
2023-03-16T09:30:03.568Z,8.60
2023-03-16T09:33:13.633Z,9.22
2023-03-16T09:36:20.735Z,9.81
2023-03-16T09:39:30.859Z,10.91
2023-03-16T09:42:44.620Z,10.35
2023-03-16T09:46:06.927Z,9.24
2023-03-16T09:49:18.932Z,9.20
2023-03-16T09:52:40.362Z,8.87
2023-03-16T09:55:56.633Z,10.64
2023-03-16T09:59:04.869Z,10.42
2023-03-16T10:02:49.954Z,10.44
2023-03-16T10:06:04.771Z,11.03
2023-03-16T10:09:34.720Z,10.92
2023-03-16T10:12:53.749Z,11.34
2023-03-16T10:16:06.705Z,9.56
2023-03-16T10:19:23.563Z,7.94
2023-03-16T10:22:35.967Z,7.63
2023-03-16T10:25:50.833Z,7.51
2023-03-16T10:29:01.338Z,7.56
2023-03-16T10:32:19.768Z,7.12
2023-03-16T10:35:49.822Z,6.10
2023-03-16T10:39:01.049Z,5.88
2023-03-16T10:42:09.662Z,6.20
2023-03-16T10:45:32.288Z,6.71
2023-03-16T10:48:38.177Z,6.24
2023-03-16T10:51:48.631Z,5.68
2023-03-16T10:55:00.146Z,4.95
2023-03-16T10:58:06.928Z,5.17
2023-03-16T11:01:24.154Z,5.99
2023-03-16T11:04:36.230Z,5.93
2023-03-16T11:07:42.251Z,6.02
2023-03-16T11:10:57.918Z,6.58
2023-03-16T11:14:08.388Z,5.83
2023-03-16T11:17:27.730Z,4.70
2023-03-16T11:20:38.879Z,4.79
2023-03-16T11:23:58.385Z,5.55
2023-03-16T11:27:13.013Z,6.86
2023-03-16T11:30:31.171Z,7.31
2023-03-16T11:33:40.498Z,7.15
2023-03-16T11:37:00.146Z,6.86
2023-03-16T11:40:26.765Z,5.88
2023-03-16T11:43:57.152Z,5.73
2023-03-16T11:47:28.437Z,6.77
2023-03-16T11:51:01.520Z,7.19
2023-03-16T11:54:39.749Z,7.51
2023-03-16T11:58:09.435Z,8.55
2023-03-16T12:01:30.860Z,9.16
2023-03-16T12:05:09.857Z,8.64
2023-03-16T12:08:50.202Z,8.37
2023-03-16T12:12:08.140Z,9.28
2023-03-16T12:15:36.323Z,9.28
2023-03-16T12:18:52.014Z,8.85
2023-03-16T12:22:15.465Z,6.97
2023-03-16T12:25:32.046Z,6.39
2023-03-16T12:28:41.266Z,6.27
2023-03-16T12:31:58.856Z,6.63
2023-03-16T12:35:27.915Z,6.09
2023-03-16T12:38:50.337Z,6.47
2023-03-16T12:42:22.338Z,7.41
2023-03-16T12:45:46.514Z,7.37
2023-03-16T12:49:01.585Z,7.61
2023-03-16T12:52:13.693Z,8.12
2023-03-16T12:55:23.989Z,7.68
2023-03-16T12:58:34.664Z,7.61
2023-03-16T13:01:48.863Z,6.98
2023-03-16T13:05:03.482Z,6.34
2023-03-16T13:08:16.094Z,5.99
2023-03-16T13:11:23.105Z,5.72
2023-03-16T13:14:47.122Z,5.67
2023-03-16T13:18:10.084Z,6.25
2023-03-16T13:21:26.280Z,6.18
2023-03-16T13:24:43.237Z,5.86
2023-03-16T13:27:55.567Z,5.58
2023-03-16T13:31:06.868Z,5.22
2023-03-16T13:34:24.441Z,5.43
2023-03-16T13:37:34.236Z,5.15
2023-03-16T13:40:51.115Z,4.84
2023-03-16T13:43:57.933Z,4.75
2023-03-16T13:47:10.677Z,4.58
2023-03-16T13:50:19.861Z,4.40
2023-03-16T13:53:30.154Z,4.17
2023-03-16T13:56:37.491Z,3.96
2023-03-16T13:59:45.002Z,4.06
2023-03-16T14:02:57.491Z,4.42
2023-03-16T14:06:04.866Z,4.55
2023-03-16T14:09:23.573Z,4.49
2023-03-16T14:12:29.535Z,4.69
2023-03-16T14:15:37.262Z,4.82
2023-03-16T14:18:50.581Z,4.81
2023-03-16T14:21:57.883Z,4.72
2023-03-16T14:25:05.842Z,4.70
2023-03-16T14:28:18.938Z,4.50
2023-03-16T14:31:26.511Z,4.45
2023-03-16T14:34:41.906Z,4.04
2023-03-16T14:37:49.610Z,3.97
2023-03-16T14:41:00.965Z,4.04
2023-03-16T14:44:07.957Z,4.10
2023-03-16T14:47:28.327Z,4.14
2023-03-16T14:50:38.208Z,4.08
2023-03-16T14:53:45.517Z,4.00
2023-03-16T14:56:55.757Z,3.88
2023-03-16T15:00:02.521Z,3.73
2023-03-16T15:03:16.147Z,3.64
2023-03-16T15:06:31.489Z,3.57
2023-03-16T15:09:46.214Z,3.44
2023-03-16T15:13:04.575Z,3.35
2023-03-16T15:16:14.962Z,3.46
2023-03-16T15:19:22.442Z,3.59
2023-03-16T15:22:34.291Z,3.63
2023-03-16T15:25:43.994Z,3.86
2023-03-16T15:28:49.910Z,3.84
2023-03-16T15:31:56.935Z,3.81
2023-03-16T15:35:02.822Z,3.74
2023-03-16T15:38:21.760Z,3.72
2023-03-16T15:41:32.345Z,3.76
2023-03-16T15:44:45.229Z,3.60
2023-03-16T15:47:52.043Z,3.59
2023-03-16T15:51:04.022Z,3.46
2023-03-16T15:54:15.369Z,3.40
2023-03-16T15:57:22.901Z,3.41
2023-03-16T16:00:37.636Z,3.38
2023-03-16T16:03:45.038Z,3.33
2023-03-16T16:06:55.379Z,3.40
2023-03-16T16:10:05.322Z,3.34
2023-03-16T16:13:20.434Z,3.45
2023-03-16T16:16:32.229Z,3.44
2023-03-16T16:19:38.451Z,3.40
2023-03-16T16:22:45.516Z,3.26
2023-03-16T16:25:57.731Z,3.27
2023-03-16T16:29:14.619Z,3.29
2023-03-16T16:32:27.506Z,3.17
2023-03-16T16:35:34.268Z,3.13
2023-03-16T16:38:40.611Z,2.99
2023-03-16T16:41:54.858Z,2.95
2023-03-16T16:45:01.497Z,2.94
2023-03-16T16:48:33.380Z,2.85
2023-03-16T16:51:39.596Z,2.73
2023-03-16T16:54:51.132Z,2.59
2023-03-16T16:57:59.887Z,2.47
2023-03-16T17:01:07.471Z,2.40
2023-03-16T17:04:20.354Z,2.22
2023-03-16T17:07:28.205Z,2.21
2023-03-16T17:10:35.317Z,2.05
2023-03-16T17:13:47.036Z,1.97
2023-03-16T17:16:54.896Z,1.89
2023-03-16T17:20:02.114Z,1.83
2023-03-16T17:23:31.684Z,1.72
2023-03-16T17:26:50.882Z,1.73
2023-03-16T17:30:05.167Z,1.66
2023-03-16T17:33:20.442Z,1.55
2023-03-16T17:36:44.206Z,1.40
2023-03-16T17:39:52.446Z,1.21
2023-03-16T17:43:03.251Z,1.16
2023-03-16T17:46:25.396Z,1.13
2023-03-16T17:49:32.832Z,1.14
2023-03-16T17:52:40.308Z,1.06
2023-03-16T17:55:49.620Z,1.01
2023-03-16T17:59:10.453Z,0.84
2023-03-16T18:02:43.309Z,0.83
2023-03-16T18:05:51.251Z,0.71
2023-03-16T18:08:58.209Z,0.59
2023-03-16T18:12:09.532Z,0.46
2023-03-16T18:15:30.502Z,0.38
2023-03-16T18:18:46.355Z,0.30
2023-03-16T18:21:53.924Z,0.23
2023-03-16T18:25:31.861Z,0.25
2023-03-16T18:28:40.814Z,0.23
2023-03-16T18:32:04.064Z,0.19
2023-03-16T18:35:24.171Z,0.10
2023-03-16T18:38:36.848Z,0.07
2023-03-16T18:41:47.116Z,-0.04
2023-03-16T18:45:10.287Z,-0.06
2023-03-16T18:48:29.615Z,-0.15
2023-03-16T18:51:40.556Z,-0.22
2023-03-16T18:54:48.535Z,-0.28
2023-03-16T18:57:57.764Z,-0.34
2023-03-16T19:01:18.658Z,-0.52
2023-03-16T19:04:30.987Z,-0.56
2023-03-16T19:07:43.826Z,-0.71
2023-03-16T19:10:56.854Z,-0.80
2023-03-16T19:14:03.854Z,-0.71
2023-03-16T19:17:14.484Z,-0.69
2023-03-16T19:20:26.360Z,-0.69
2023-03-16T19:23:43.631Z,-0.65
2023-03-16T19:26:55.733Z,-0.49
2023-03-16T19:30:04.123Z,-0.38
2023-03-16T19:33:26.511Z,-0.25
2023-03-16T19:36:39.951Z,-0.27
2023-03-16T19:39:46.864Z,-0.36
2023-03-16T19:42:56.282Z,-0.42
2023-03-16T19:46:03.164Z,-0.45
2023-03-16T19:49:20.134Z,-0.53
2023-03-16T19:52:28.427Z,-0.61
2023-03-16T19:55:37.037Z,-0.67
2023-03-16T19:58:48.100Z,-0.73
2023-03-16T20:01:55.803Z,-0.82
2023-03-16T20:05:04.512Z,-0.82
2023-03-16T20:08:24.685Z,-0.90
2023-03-16T20:11:35.218Z,-0.89
2023-03-16T20:14:42.989Z,-0.99
2023-03-16T20:17:50.621Z,-1.19
2023-03-16T20:21:00.434Z,-1.20
2023-03-16T20:24:06.669Z,-1.38
2023-03-16T20:27:16.397Z,-1.28
2023-03-16T20:30:24.497Z,-1.40
2023-03-16T20:33:31.985Z,-1.47
2023-03-16T20:36:40.884Z,-1.30
2023-03-16T20:39:47.681Z,-1.23
2023-03-16T20:42:56.631Z,-1.14
2023-03-16T20:46:06.004Z,-1.03
2023-03-16T20:49:34.679Z,-0.93
2023-03-16T20:52:44.819Z,-0.94
2023-03-16T20:55:51.460Z,-0.87
2023-03-16T20:58:59.265Z,-0.88
2023-03-16T21:02:06.374Z,-0.89
2023-03-16T21:05:16.171Z,-1.01
2023-03-16T21:08:24.925Z,-1.09
2023-03-16T21:11:39.252Z,-1.19
2023-03-16T21:14:45.302Z,-1.33
2023-03-16T21:18:01.149Z,-1.77
2023-03-16T21:21:07.660Z,-2.11
2023-03-16T21:24:17.115Z,-2.14
2023-03-16T21:27:30.744Z,-2.13
2023-03-16T21:30:42.997Z,-1.89
2023-03-16T21:33:49.942Z,-1.94
2023-03-16T21:36:56.812Z,-1.92
2023-03-16T21:40:05.345Z,-1.87
2023-03-16T21:43:12.682Z,-1.80
2023-03-16T21:46:22.766Z,-1.70
2023-03-16T21:49:29.792Z,-1.58
2023-03-16T21:52:36.174Z,-1.59
2023-03-16T21:55:45.886Z,-1.59
2023-03-16T21:58:53.715Z,-1.61
2023-03-16T22:02:02.213Z,-1.66
2023-03-16T22:05:37.854Z,-1.72
2023-03-16T22:08:44.687Z,-1.67
2023-03-16T22:11:53.872Z,-1.63
2023-03-16T22:15:00.615Z,-1.91
2023-03-16T22:18:18.166Z,-2.03
2023-03-16T22:21:37.813Z,-2.23
2023-03-16T22:24:46.271Z,-2.37
2023-03-16T22:27:56.767Z,-2.20
2023-03-16T22:31:07.140Z,-2.17
2023-03-16T22:34:32.386Z,-2.21
2023-03-16T22:37:38.462Z,-2.14
2023-03-16T22:40:46.959Z,-2.19
2023-03-16T22:43:57.021Z,-2.38
2023-03-16T22:47:03.686Z,-2.20
2023-03-16T22:50:10.707Z,-2.10
2023-03-16T22:53:30.046Z,-2.30
2023-03-16T22:56:38.078Z,-2.31
2023-03-16T22:59:50.294Z,-2.41
2023-03-16T23:02:58.573Z,-2.71
2023-03-16T23:06:09.189Z,-2.72
2023-03-16T23:09:16.914Z,-2.87
2023-03-16T23:12:25.353Z,-2.97
2023-03-16T23:15:35.465Z,-2.89
2023-03-16T23:18:42.278Z,-2.92
2023-03-16T23:21:48.096Z,-2.95
2023-03-16T23:24:55.043Z,-3.09
2023-03-16T23:28:05.718Z,-3.32
2023-03-16T23:31:17.697Z,-3.42
2023-03-16T23:34:27.102Z,-3.48
2023-03-16T23:37:33.780Z,-3.41
2023-03-16T23:40:42.393Z,-3.36
2023-03-16T23:43:52.008Z,-3.44
2023-03-16T23:47:02.924Z,-3.29
2023-03-16T23:50:14.755Z,-3.24
2023-03-16T23:53:22.984Z,-3.22
2023-03-16T23:56:30.084Z,-3.08
2023-03-16T23:59:36.306Z,-3.04
